sensor_id;sensor_type;location;lat;lon;timestamp;pressure;altitude;pressure_sealevel;temperature;humidity
68544;BME280;55534;52.222;5.156;2023-06-14T00:01:18;101460.28;;;19.91;100.00
68544;BME280;55534;52.222;5.156;2023-06-14T00:03:45;101552.22;;;20.49;100.00
68544;BME280;55534;52.222;5.156;2023-06-14T00:06:12;101592.38;;;20.76;100.00
68544;BME280;55534;52.222;5.156;2023-06-14T00:08:38;101574.97;;;20.63;100.00
68544;BME280;55534;52.222;5.156;2023-06-14T00:11:05;101574.09;;;20.53;100.00
68544;BME280;55534;52.222;5.156;2023-06-14T00:13:30;101573.47;;;20.49;100.00
68544;BME280;55534;52.222;5.156;2023-06-14T00:15:55;101577.16;;;20.51;100.00
68544;BME280;55534;52.222;5.156;2023-06-14T00:18:21;101597.47;;;20.58;100.00
68544;BME280;55534;52.222;5.156;2023-06-14T00:20:49;101602.25;;;20.63;100.00
68544;BME280;55534;52.222;5.156;2023-06-14T00:23:15;101568.56;;;20.34;100.00
68544;BME280;55534;52.222;5.156;2023-06-14T00:25:40;101555.19;;;20.25;100.00
68544;BME280;55534;52.222;5.156;2023-06-14T00:28:05;101598.41;;;20.51;100.00
68544;BME280;55534;52.222;5.156;2023-06-14T00:30:31;101591.50;;;20.41;100.00
68544;BME280;55534;52.222;5.156;2023-06-14T00:32:56;101534.69;;;20.00;100.00
68544;BME280;55534;52.222;5.156;2023-06-14T00:35:24;101566.66;;;20.22;100.00
68544;BME280;55534;52.222;5.156;2023-06-14T00:37:50;101567.06;;;20.21;100.00
68544;BME280;55534;52.222;5.156;2023-06-14T00:40:16;101604.78;;;20.41;100.00
68544;BME280;55534;52.222;5.156;2023-06-14T00:42:41;101517.47;;;19.79;100.00
68544;BME280;55534;52.222;5.156;2023-06-14T00:45:21;101599.38;;;20.32;100.00
68544;BME280;55534;52.222;5.156;2023-06-14T00:47:47;101582.03;;;20.14;100.00
68544;BME280;55534;52.222;5.156;2023-06-14T00:50:13;101525.53;;;19.75;100.00
68544;BME280;55534;52.222;5.156;2023-06-14T00:52:39;101604.03;;;20.28;100.00
68544;BME280;55534;52.222;5.156;2023-06-14T00:55:05;101593.63;;;20.21;100.00
68544;BME280;55534;52.222;5.156;2023-06-14T00:57:31;101598.59;;;20.18;100.00
68544;BME280;55534;52.222;5.156;2023-06-14T01:00:03;101579.91;;;20.09;100.00
68544;BME280;55534;52.222;5.156;2023-06-14T01:02:32;101584.56;;;20.05;100.00
68544;BME280;55534;52.222;5.156;2023-06-14T01:04:57;101593.94;;;20.10;100.00
68544;BME280;55534;52.222;5.156;2023-06-14T01:12:59;101597.19;;;20.01;100.00
68544;BME280;55534;52.222;5.156;2023-06-14T01:15:29;101580.09;;;19.89;100.00
68544;BME280;55534;52.222;5.156;2023-06-14T01:17:56;101593.44;;;19.86;100.00
68544;BME280;55534;52.222;5.156;2023-06-14T01:20:29;101579.63;;;19.78;100.00
68544;BME280;55534;52.222;5.156;2023-06-14T01:22:56;101568.13;;;19.68;100.00
68544;BME280;55534;52.222;5.156;2023-06-14T01:25:23;101598.00;;;19.85;100.00
68544;BME280;55534;52.222;5.156;2023-06-14T01:27:51;101520.75;;;19.25;100.00
68544;BME280;55534;52.222;5.156;2023-06-14T01:30:20;101559.47;;;19.51;100.00
68544;BME280;55534;52.222;5.156;2023-06-14T01:32:47;101587.69;;;19.74;100.00
68544;BME280;55534;52.222;5.156;2023-06-14T01:35:13;101597.22;;;19.72;100.00
68544;BME280;55534;52.222;5.156;2023-06-14T01:37:40;101577.44;;;19.60;100.00
68544;BME280;55534;52.222;5.156;2023-06-14T01:40:07;101596.66;;;19.64;100.00
68544;BME280;55534;52.222;5.156;2023-06-14T01:42:36;101603.50;;;19.62;100.00
68544;BME280;55534;52.222;5.156;2023-06-14T01:45:04;101590.88;;;19.53;100.00
68544;BME280;55534;52.222;5.156;2023-06-14T01:47:31;101568.22;;;19.35;100.00
68544;BME280;55534;52.222;5.156;2023-06-14T01:49:57;101594.56;;;19.43;100.00
68544;BME280;55534;52.222;5.156;2023-06-14T01:52:22;101593.13;;;19.38;100.00
68544;BME280;55534;52.222;5.156;2023-06-14T01:54:50;101601.09;;;19.38;100.00
68544;BME280;55534;52.222;5.156;2023-06-14T01:57:15;101555.16;;;19.12;100.00
68544;BME280;55534;52.222;5.156;2023-06-14T01:59:41;101598.94;;;19.33;100.00
68544;BME280;55534;52.222;5.156;2023-06-14T02:02:08;101582.97;;;19.20;100.00
68544;BME280;55534;52.222;5.156;2023-06-14T02:04:33;101569.66;;;19.07;100.00
68544;BME280;55534;52.222;5.156;2023-06-14T02:06:59;101568.00;;;18.97;100.00
68544;BME280;55534;52.222;5.156;2023-06-14T02:09:25;101547.81;;;18.87;100.00
68544;BME280;55534;52.222;5.156;2023-06-14T02:11:53;101586.19;;;19.11;100.00
68544;BME280;55534;52.222;5.156;2023-06-14T02:14:19;101563.19;;;18.92;100.00
68544;BME280;55534;52.222;5.156;2023-06-14T02:16:44;101516.75;;;18.54;100.00
68544;BME280;55534;52.222;5.156;2023-06-14T02:19:18;101592.03;;;19.06;100.00
68544;BME280;55534;52.222;5.156;2023-06-14T02:21:44;101599.63;;;19.04;100.00
68544;BME280;55534;52.222;5.156;2023-06-14T02:24:12;101577.94;;;18.93;100.00
68544;BME280;55534;52.222;5.156;2023-06-14T02:26:37;101589.94;;;18.97;100.00
68544;BME280;55534;52.222;5.156;2023-06-14T02:29:05;101586.22;;;18.95;100.00
68544;BME280;55534;52.222;5.156;2023-06-14T02:31:31;101590.44;;;18.92;100.00
68544;BME280;55534;52.222;5.156;2023-06-14T02:33:57;101553.56;;;18.65;100.00
68544;BME280;55534;52.222;5.156;2023-06-14T02:36:23;101598.47;;;18.89;100.00
68544;BME280;55534;52.222;5.156;2023-06-14T02:38:48;101580.16;;;18.78;100.00
68544;BME280;55534;52.222;5.156;2023-06-14T02:41:13;101564.25;;;18.61;100.00
68544;BME280;55534;52.222;5.156;2023-06-14T02:43:39;101545.28;;;18.47;100.00
68544;BME280;55534;52.222;5.156;2023-06-14T02:46:05;101603.56;;;18.79;100.00
68544;BME280;55534;52.222;5.156;2023-06-14T02:48:31;101604.47;;;18.73;100.00
68544;BME280;55534;52.222;5.156;2023-06-14T02:50:56;101597.00;;;18.68;100.00
68544;BME280;55534;52.222;5.156;2023-06-14T02:53:22;101549.38;;;18.31;100.00
68544;BME280;55534;52.222;5.156;2023-06-14T02:55:47;101588.13;;;18.58;100.00
68544;BME280;55534;52.222;5.156;2023-06-14T02:58:14;101539.38;;;18.22;100.00
68544;BME280;55534;52.222;5.156;2023-06-14T03:00:39;101597.66;;;18.55;100.00
68544;BME280;55534;52.222;5.156;2023-06-14T03:03:06;101571.97;;;18.36;100.00
68544;BME280;55534;52.222;5.156;2023-06-14T03:05:44;101563.03;;;18.30;100.00
68544;BME280;55534;52.222;5.156;2023-06-14T03:08:16;101578.00;;;18.36;100.00
68544;BME280;55534;52.222;5.156;2023-06-14T03:10:46;101619.91;;;18.58;100.00
68544;BME280;55534;52.222;5.156;2023-06-14T03:13:13;101626.78;;;18.55;100.00
68544;BME280;55534;52.222;5.156;2023-06-14T03:15:39;101561.91;;;18.11;100.00
68544;BME280;55534;52.222;5.156;2023-06-14T03:18:10;101609.31;;;18.41;100.00
68544;BME280;55534;52.222;5.156;2023-06-14T03:20:38;101603.06;;;18.32;100.00
68544;BME280;55534;52.222;5.156;2023-06-14T03:23:05;101605.38;;;18.30;100.00
68544;BME280;55534;52.222;5.156;2023-06-14T03:25:32;101621.88;;;18.37;100.00
68544;BME280;55534;52.222;5.156;2023-06-14T03:28:02;101618.19;;;18.31;100.00
68544;BME280;55534;52.222;5.156;2023-06-14T03:30:30;101626.88;;;18.32;100.00
68544;BME280;55534;52.222;5.156;2023-06-14T03:32:55;101632.44;;;18.37;100.00
68544;BME280;55534;52.222;5.156;2023-06-14T03:35:23;101616.50;;;18.21;100.00
68544;BME280;55534;52.222;5.156;2023-06-14T03:37:49;101628.94;;;18.24;100.00
68544;BME280;55534;52.222;5.156;2023-06-14T03:40:17;101625.94;;;18.22;100.00
68544;BME280;55534;52.222;5.156;2023-06-14T03:42:46;101640.59;;;18.27;100.00
68544;BME280;55534;52.222;5.156;2023-06-14T03:45:12;101630.63;;;18.14;100.00
68544;BME280;55534;52.222;5.156;2023-06-14T03:47:38;101606.41;;;17.96;100.00
68544;BME280;55534;52.222;5.156;2023-06-14T03:50:03;101655.41;;;18.24;100.00
68544;BME280;55534;52.222;5.156;2023-06-14T03:52:29;101647.59;;;18.17;100.00
68544;BME280;55534;52.222;5.156;2023-06-14T03:54:55;101617.00;;;17.96;100.00
68544;BME280;55534;52.222;5.156;2023-06-14T03:57:22;101607.78;;;17.80;100.00
68544;BME280;55534;52.222;5.156;2023-06-14T03:59:49;101648.06;;;18.12;100.00
68544;BME280;55534;52.222;5.156;2023-06-14T04:02:15;101662.78;;;18.13;100.00
68544;BME280;55534;52.222;5.156;2023-06-14T04:04:42;101652.00;;;18.03;100.00
68544;BME280;55534;52.222;5.156;2023-06-14T04:07:12;101646.88;;;17.93;100.00
68544;BME280;55534;52.222;5.156;2023-06-14T04:09:38;101661.44;;;18.05;100.00
68544;BME280;55534;52.222;5.156;2023-06-14T04:12:05;101663.03;;;17.98;100.00
68544;BME280;55534;52.222;5.156;2023-06-14T04:14:32;101664.41;;;18.07;100.00
68544;BME280;55534;52.222;5.156;2023-06-14T04:17:00;101648.53;;;17.83;100.00
68544;BME280;55534;52.222;5.156;2023-06-14T04:19:26;101661.66;;;17.90;100.00
68544;BME280;55534;52.222;5.156;2023-06-14T04:21:52;101654.25;;;17.81;100.00
68544;BME280;55534;52.222;5.156;2023-06-14T04:24:17;101630.28;;;17.69;100.00
68544;BME280;55534;52.222;5.156;2023-06-14T04:26:46;101662.13;;;17.85;100.00
68544;BME280;55534;52.222;5.156;2023-06-14T04:29:15;101664.03;;;17.85;100.00
68544;BME280;55534;52.222;5.156;2023-06-14T04:31:43;101680.88;;;17.94;100.00
68544;BME280;55534;52.222;5.156;2023-06-14T04:34:10;101670.06;;;17.85;100.00
68544;BME280;55534;52.222;5.156;2023-06-14T04:36:43;101671.97;;;17.85;100.00
68544;BME280;55534;52.222;5.156;2023-06-14T04:39:21;101692.28;;;17.91;100.00
68544;BME280;55534;52.222;5.156;2023-06-14T04:41:47;101670.53;;;17.80;100.00
68544;BME280;55534;52.222;5.156;2023-06-14T04:44:16;101630.13;;;17.56;100.00
68544;BME280;55534;52.222;5.156;2023-06-14T04:46:46;101656.00;;;17.68;100.00
68544;BME280;55534;52.222;5.156;2023-06-14T04:49:15;101670.97;;;17.75;100.00
68544;BME280;55534;52.222;5.156;2023-06-14T04:51:42;101663.97;;;17.64;100.00
68544;BME280;55534;52.222;5.156;2023-06-14T04:54:11;101620.59;;;17.38;100.00
68544;BME280;55534;52.222;5.156;2023-06-14T04:56:39;101673.28;;;17.73;100.00
68544;BME280;55534;52.222;5.156;2023-06-14T04:59:05;101692.75;;;17.82;100.00
68544;BME280;55534;52.222;5.156;2023-06-14T05:01:31;101660.94;;;17.66;100.00
68544;BME280;55534;52.222;5.156;2023-06-14T05:03:58;101697.63;;;17.88;100.00
68544;BME280;55534;52.222;5.156;2023-06-14T05:06:23;101660.16;;;17.66;100.00
68544;BME280;55534;52.222;5.156;2023-06-14T05:08:49;101686.72;;;17.82;100.00
68544;BME280;55534;52.222;5.156;2023-06-14T05:11:17;101650.47;;;17.59;100.00
68544;BME280;55534;52.222;5.156;2023-06-14T05:13:43;101650.81;;;17.61;100.00
68544;BME280;55534;52.222;5.156;2023-06-14T05:16:11;101697.97;;;17.90;100.00
68544;BME280;55534;52.222;5.156;2023-06-14T05:18:37;101648.22;;;17.57;100.00
68544;BME280;55534;52.222;5.156;2023-06-14T05:21:03;101660.13;;;17.69;100.00
68544;BME280;55534;52.222;5.156;2023-06-14T05:23:30;101704.63;;;17.98;100.00
68544;BME280;55534;52.222;5.156;2023-06-14T05:25:56;101678.78;;;17.82;100.00
68544;BME280;55534;52.222;5.156;2023-06-14T05:28:22;101696.34;;;17.96;100.00
68544;BME280;55534;52.222;5.156;2023-06-14T05:30:48;101685.81;;;17.92;100.00
68544;BME280;55534;52.222;5.156;2023-06-14T05:33:13;101684.19;;;17.98;100.00
68544;BME280;55534;52.222;5.156;2023-06-14T05:35:38;101702.88;;;18.11;100.00
68544;BME280;55534;52.222;5.156;2023-06-14T05:38:04;101668.94;;;17.86;100.00
68544;BME280;55534;52.222;5.156;2023-06-14T05:40:29;101710.34;;;18.16;100.00
68544;BME280;55534;52.222;5.156;2023-06-14T05:42:55;101656.91;;;17.81;100.00
68544;BME280;55534;52.222;5.156;2023-06-14T05:45:20;101633.78;;;17.62;100.00
68544;BME280;55534;52.222;5.156;2023-06-14T05:47:46;101632.31;;;17.61;100.00
68544;BME280;55534;52.222;5.156;2023-06-14T05:50:11;101712.78;;;18.27;100.00
68544;BME280;55534;52.222;5.156;2023-06-14T05:52:36;101720.66;;;18.31;100.00
68544;BME280;55534;52.222;5.156;2023-06-14T05:55:03;101692.69;;;18.10;100.00
68544;BME280;55534;52.222;5.156;2023-06-14T05:57:28;101644.13;;;17.76;100.00
68544;BME280;55534;52.222;5.156;2023-06-14T05:59:54;101721.75;;;18.33;100.00
68544;BME280;55534;52.222;5.156;2023-06-14T06:02:19;101726.56;;;18.38;100.00
68544;BME280;55534;52.222;5.156;2023-06-14T06:04:45;101739.00;;;18.41;100.00
68544;BME280;55534;52.222;5.156;2023-06-14T06:07:10;101706.28;;;18.32;100.00
68544;BME280;55534;52.222;5.156;2023-06-14T06:09:36;101736.56;;;18.51;100.00
68544;BME280;55534;52.222;5.156;2023-06-14T06:12:01;101731.94;;;18.55;100.00
68544;BME280;55534;52.222;5.156;2023-06-14T06:14:26;101708.97;;;18.48;100.00
68544;BME280;55534;52.222;5.156;2023-06-14T06:16:54;101721.28;;;18.58;100.00
68544;BME280;55534;52.222;5.156;2023-06-14T06:19:19;101741.38;;;18.76;100.00
68544;BME280;55534;52.222;5.156;2023-06-14T06:21:45;101727.34;;;18.75;100.00
68544;BME280;55534;52.222;5.156;2023-06-14T06:24:10;101729.94;;;18.79;100.00
68544;BME280;55534;52.222;5.156;2023-06-14T06:26:36;101716.34;;;18.77;100.00
68544;BME280;55534;52.222;5.156;2023-06-14T06:29:01;101713.66;;;18.80;100.00
68544;BME280;55534;52.222;5.156;2023-06-14T06:31:27;101740.47;;;19.03;100.00
68544;BME280;55534;52.222;5.156;2023-06-14T06:33:53;101740.88;;;19.01;100.00
68544;BME280;55534;52.222;5.156;2023-06-14T06:36:19;101726.13;;;19.00;100.00
68544;BME280;55534;52.222;5.156;2023-06-14T06:38:45;101751.59;;;19.14;100.00
68544;BME280;55534;52.222;5.156;2023-06-14T06:41:10;101740.16;;;19.17;100.00
68544;BME280;55534;52.222;5.156;2023-06-14T06:43:36;101724.50;;;19.06;100.00
68544;BME280;55534;52.222;5.156;2023-06-14T06:46:01;101747.28;;;19.20;100.00
68544;BME280;55534;52.222;5.156;2023-06-14T06:48:27;101732.88;;;19.21;100.00
68544;BME280;55534;52.222;5.156;2023-06-14T06:50:53;101730.66;;;19.19;100.00
68544;BME280;55534;52.222;5.156;2023-06-14T06:53:18;101751.69;;;19.43;100.00
68544;BME280;55534;52.222;5.156;2023-06-14T06:55:44;101748.78;;;19.37;100.00
68544;BME280;55534;52.222;5.156;2023-06-14T06:58:10;101744.16;;;19.42;100.00
68544;BME280;55534;52.222;5.156;2023-06-14T07:00:35;101733.97;;;19.40;100.00
68544;BME280;55534;52.222;5.156;2023-06-14T07:03:01;101766.63;;;19.70;100.00
68544;BME280;55534;52.222;5.156;2023-06-14T07:05:26;101744.91;;;19.58;100.00
68544;BME280;55534;52.222;5.156;2023-06-14T07:07:52;101769.34;;;19.83;100.00
68544;BME280;55534;52.222;5.156;2023-06-14T07:10:17;101753.03;;;19.84;100.00
68544;BME280;55534;52.222;5.156;2023-06-14T07:12:44;101764.53;;;19.94;100.00
68544;BME280;55534;52.222;5.156;2023-06-14T07:15:10;101740.84;;;19.87;100.00
68544;BME280;55534;52.222;5.156;2023-06-14T07:17:35;101758.25;;;20.04;100.00
68544;BME280;55534;52.222;5.156;2023-06-14T07:20:05;101740.25;;;19.95;100.00
68544;BME280;55534;52.222;5.156;2023-06-14T07:22:40;101776.19;;;20.29;100.00
68544;BME280;55534;52.222;5.156;2023-06-14T07:25:09;101758.50;;;20.23;100.00
68544;BME280;55534;52.222;5.156;2023-06-14T07:27:37;101750.00;;;20.15;100.00
68544;BME280;55534;52.222;5.156;2023-06-14T07:30:03;101779.31;;;20.41;100.00
68544;BME280;55534;52.222;5.156;2023-06-14T07:32:28;101762.72;;;20.36;100.00
68544;BME280;55534;52.222;5.156;2023-06-14T07:34:54;101793.94;;;20.62;100.00
68544;BME280;55534;52.222;5.156;2023-06-14T07:37:19;101775.94;;;20.53;100.00
68544;BME280;55534;52.222;5.156;2023-06-14T07:39:44;101749.66;;;20.42;100.00
68544;BME280;55534;52.222;5.156;2023-06-14T07:42:10;101752.44;;;20.51;100.00
68544;BME280;55534;52.222;5.156;2023-06-14T07:44:35;101776.78;;;20.79;100.00
68544;BME280;55534;52.222;5.156;2023-06-14T07:47:01;101777.72;;;20.85;100.00
68544;BME280;55534;52.222;5.156;2023-06-14T07:49:27;101744.84;;;20.66;100.00
68544;BME280;55534;52.222;5.156;2023-06-14T07:51:52;101798.28;;;21.10;100.00
68544;BME280;55534;52.222;5.156;2023-06-14T07:54:19;101770.53;;;20.99;100.00
68544;BME280;55534;52.222;5.156;2023-06-14T07:56:44;101793.91;;;21.17;100.00
68544;BME280;55534;52.222;5.156;2023-06-14T07:59:10;101655.84;;;20.32;100.00
68544;BME280;55534;52.222;5.156;2023-06-14T08:01:35;101753.94;;;20.94;100.00
68544;BME280;55534;52.222;5.156;2023-06-14T08:04:01;101788.72;;;21.26;100.00
68544;BME280;55534;52.222;5.156;2023-06-14T08:06:27;101785.09;;;21.32;100.00
68544;BME280;55534;52.222;5.156;2023-06-14T08:08:52;101780.63;;;21.29;100.00
68544;BME280;55534;52.222;5.156;2023-06-14T08:11:17;101771.59;;;21.27;100.00
68544;BME280;55534;52.222;5.156;2023-06-14T08:13:43;101778.63;;;21.46;100.00
68544;BME280;55534;52.222;5.156;2023-06-14T08:16:08;101790.63;;;21.64;100.00
68544;BME280;55534;52.222;5.156;2023-06-14T08:18:34;101810.50;;;21.85;100.00
68544;BME280;55534;52.222;5.156;2023-06-14T08:20:59;101773.16;;;21.63;100.00
68544;BME280;55534;52.222;5.156;2023-06-14T08:23:25;101777.72;;;21.75;100.00
68544;BME280;55534;52.222;5.156;2023-06-14T08:25:51;101802.78;;;22.00;100.00
68544;BME280;55534;52.222;5.156;2023-06-14T08:28:16;101802.09;;;22.08;100.00
68544;BME280;55534;52.222;5.156;2023-06-14T08:30:42;101787.88;;;22.02;100.00
68544;BME280;55534;52.222;5.156;2023-06-14T08:33:08;101769.66;;;22.01;100.00
68544;BME280;55534;52.222;5.156;2023-06-14T08:35:33;101786.81;;;22.22;100.00
68544;BME280;55534;52.222;5.156;2023-06-14T08:38:02;101792.25;;;22.31;100.00
68544;BME280;55534;52.222;5.156;2023-06-14T08:40:29;101789.22;;;22.42;100.00
68544;BME280;55534;52.222;5.156;2023-06-14T08:42:55;101793.13;;;22.50;100.00
68544;BME280;55534;52.222;5.156;2023-06-14T08:45:21;101813.56;;;22.75;100.00
68544;BME280;55534;52.222;5.156;2023-06-14T08:47:47;101809.00;;;22.85;100.00
68544;BME280;55534;52.222;5.156;2023-06-14T08:50:24;101793.31;;;22.87;100.00
68544;BME280;55534;52.222;5.156;2023-06-14T08:52:51;101805.16;;;23.08;100.00
68544;BME280;55534;52.222;5.156;2023-06-14T08:55:18;101796.41;;;23.07;100.00
68544;BME280;55534;52.222;5.156;2023-06-14T08:57:46;101811.00;;;23.25;100.00
68544;BME280;55534;52.222;5.156;2023-06-14T09:00:12;101779.56;;;23.20;100.00
68544;BME280;55534;52.222;5.156;2023-06-14T09:02:39;101793.69;;;23.39;100.00
68544;BME280;55534;52.222;5.156;2023-06-14T09:05:11;101789.84;;;23.49;100.00
68544;BME280;55534;52.222;5.156;2023-06-14T09:07:40;101808.44;;;23.71;100.00
68544;BME280;55534;52.222;5.156;2023-06-14T09:10:11;101801.81;;;23.85;100.00
68544;BME280;55534;52.222;5.156;2023-06-14T09:12:37;101813.97;;;24.04;98.85
68544;BME280;55534;52.222;5.156;2023-06-14T09:15:04;101814.56;;;24.18;97.57
68544;BME280;55534;52.222;5.156;2023-06-14T09:17:38;101788.47;;;24.13;95.91
68544;BME280;55534;52.222;5.156;2023-06-14T09:20:05;101780.59;;;24.09;92.91
68544;BME280;55534;52.222;5.156;2023-06-14T09:22:42;101801.94;;;24.27;92.60
68544;BME280;55534;52.222;5.156;2023-06-14T09:25:08;101796.44;;;24.31;93.59
68544;BME280;55534;52.222;5.156;2023-06-14T09:27:33;101816.19;;;24.52;92.33
68544;BME280;55534;52.222;5.156;2023-06-14T09:29:59;101816.16;;;24.61;91.50
68544;BME280;55534;52.222;5.156;2023-06-14T09:32:24;101825.94;;;24.74;88.62
68544;BME280;55534;52.222;5.156;2023-06-14T09:34:50;101808.31;;;24.58;88.67
68544;BME280;55534;52.222;5.156;2023-06-14T09:37:29;101797.31;;;24.56;86.25
68544;BME280;55534;52.222;5.156;2023-06-14T09:39:55;101820.59;;;24.74;86.33
68544;BME280;55534;52.222;5.156;2023-06-14T09:42:20;101813.47;;;24.71;85.42
68544;BME280;55534;52.222;5.156;2023-06-14T09:44:49;101805.00;;;24.81;83.28
68544;BME280;55534;52.222;5.156;2023-06-14T09:47:18;101804.53;;;24.83;84.42
68544;BME280;55534;52.222;5.156;2023-06-14T09:49:44;101814.88;;;24.99;83.55
68544;BME280;55534;52.222;5.156;2023-06-14T09:52:14;101823.03;;;25.05;82.49
68544;BME280;55534;52.222;5.156;2023-06-14T09:54:42;101830.41;;;25.10;81.37
68544;BME280;55534;52.222;5.156;2023-06-14T09:57:12;101827.72;;;25.19;82.15
68544;BME280;55534;52.222;5.156;2023-06-14T09:59:41;101828.72;;;25.31;82.52
68544;BME280;55534;52.222;5.156;2023-06-14T10:02:34;101816.34;;;25.43;83.12
68544;BME280;55534;52.222;5.156;2023-06-14T10:05:08;101830.53;;;25.58;83.42
68544;BME280;55534;52.222;5.156;2023-06-14T10:07:55;101822.72;;;25.70;79.97
68544;BME280;55534;52.222;5.156;2023-06-14T10:10:22;101810.34;;;25.72;80.69
68544;BME280;55534;52.222;5.156;2023-06-14T10:12:48;101797.50;;;25.76;79.44
68544;BME280;55534;52.222;5.156;2023-06-14T10:15:26;101812.47;;;25.83;75.88
68544;BME280;55534;52.222;5.156;2023-06-14T10:18:01;101814.72;;;25.85;77.11
68544;BME280;55534;52.222;5.156;2023-06-14T10:20:34;101823.81;;;26.02;77.38
68544;BME280;55534;52.222;5.156;2023-06-14T10:23:23;101817.44;;;25.99;73.51
68544;BME280;55534;52.222;5.156;2023-06-14T10:25:50;101784.63;;;25.90;73.76
68544;BME280;55534;52.222;5.156;2023-06-14T10:28:16;101820.25;;;26.20;73.60
68544;BME280;55534;52.222;5.156;2023-06-14T10:31:02;101824.06;;;26.28;73.06
68544;BME280;55534;52.222;5.156;2023-06-14T10:33:31;101821.47;;;26.34;71.64
68544;BME280;55534;52.222;5.156;2023-06-14T10:36:09;101815.47;;;26.39;69.05
68544;BME280;55534;52.222;5.156;2023-06-14T10:38:37;101802.06;;;26.39;70.75
68544;BME280;55534;52.222;5.156;2023-06-14T10:41:04;101793.00;;;26.51;70.05
68544;BME280;55534;52.222;5.156;2023-06-14T10:43:30;101803.34;;;26.58;70.14
68544;BME280;55534;52.222;5.156;2023-06-14T10:46:17;101821.75;;;26.80;70.70
68544;BME280;55534;52.222;5.156;2023-06-14T10:48:44;101796.41;;;26.82;69.69
68544;BME280;55534;52.222;5.156;2023-06-14T10:51:17;101793.00;;;26.81;67.23
68544;BME280;55534;52.222;5.156;2023-06-14T10:53:49;101821.06;;;27.01;69.51
68544;BME280;55534;52.222;5.156;2023-06-14T10:56:29;101800.34;;;27.01;68.16
68544;BME280;55534;52.222;5.156;2023-06-14T10:58:56;101812.31;;;27.21;67.28
68544;BME280;55534;52.222;5.156;2023-06-14T11:01:31;101816.66;;;27.33;66.05
68544;BME280;55534;52.222;5.156;2023-06-14T11:04:06;101797.31;;;27.29;64.22
68544;BME280;55534;52.222;5.156;2023-06-14T11:06:45;101802.09;;;27.40;65.91
68544;BME280;55534;52.222;5.156;2023-06-14T11:11:48;101807.78;;;27.68;65.37
68544;BME280;55534;52.222;5.156;2023-06-14T11:14:16;101805.69;;;27.77;65.68
68544;BME280;55534;52.222;5.156;2023-06-14T11:16:47;101809.53;;;27.91;62.80
68544;BME280;55534;52.222;5.156;2023-06-14T11:19:13;101789.25;;;27.90;62.78
68544;BME280;55534;52.222;5.156;2023-06-14T11:21:40;101807.47;;;28.07;62.61
68544;BME280;55534;52.222;5.156;2023-06-14T11:24:10;101766.66;;;27.82;59.41
68544;BME280;55534;52.222;5.156;2023-06-14T11:26:37;101791.34;;;28.07;59.57
68544;BME280;55534;52.222;5.156;2023-06-14T11:29:03;101773.28;;;28.07;61.69
68544;BME280;55534;52.222;5.156;2023-06-14T11:31:29;101765.81;;;28.17;64.71
68544;BME280;55534;52.222;5.156;2023-06-14T11:33:56;101776.16;;;28.30;64.88
68544;BME280;55534;52.222;5.156;2023-06-14T11:36:23;101774.13;;;28.51;64.76
68544;BME280;55534;52.222;5.156;2023-06-14T11:38:58;101770.97;;;28.52;63.29
68544;BME280;55534;52.222;5.156;2023-06-14T11:41:24;101768.84;;;28.62;65.74
68544;BME280;55534;52.222;5.156;2023-06-14T11:43:52;101769.09;;;28.64;63.85
68544;BME280;55534;52.222;5.156;2023-06-14T11:46:18;101767.19;;;28.70;63.17
68544;BME280;55534;52.222;5.156;2023-06-14T11:48:49;101779.75;;;28.85;61.36
68544;BME280;55534;52.222;5.156;2023-06-14T11:51:14;101781.28;;;28.97;60.73
68544;BME280;55534;52.222;5.156;2023-06-14T11:53:42;101784.69;;;28.92;58.61
68544;BME280;55534;52.222;5.156;2023-06-14T11:56:08;101765.28;;;28.77;60.48
68544;BME280;55534;52.222;5.156;2023-06-14T11:58:33;101786.91;;;28.99;61.81
68544;BME280;55534;52.222;5.156;2023-06-14T12:00:59;101770.78;;;29.05;61.61
68544;BME280;55534;52.222;5.156;2023-06-14T12:03:25;101763.44;;;29.00;63.05
68544;BME280;55534;52.222;5.156;2023-06-14T12:08:36;101806.44;;;29.31;58.89
68544;BME280;55534;52.222;5.156;2023-06-14T12:11:14;101799.28;;;29.17;56.63
68544;BME280;55534;52.222;5.156;2023-06-14T12:13:41;101804.16;;;29.13;60.15
68544;BME280;55534;52.222;5.156;2023-06-14T12:16:08;101757.25;;;28.88;57.88
68544;BME280;55534;52.222;5.156;2023-06-14T12:18:39;101797.13;;;29.32;59.36
68544;BME280;55534;52.222;5.156;2023-06-14T12:21:05;101807.22;;;29.49;58.68
68544;BME280;55534;52.222;5.156;2023-06-14T12:23:48;101774.19;;;29.54;58.69
68544;BME280;55534;52.222;5.156;2023-06-14T12:26:16;101789.88;;;29.61;56.98
68544;BME280;55534;52.222;5.156;2023-06-14T12:28:42;101798.69;;;29.56;57.32
68544;BME280;55534;52.222;5.156;2023-06-14T12:31:08;101772.47;;;29.51;57.57
68544;BME280;55534;52.222;5.156;2023-06-14T12:33:34;101789.91;;;29.67;56.83
68544;BME280;55534;52.222;5.156;2023-06-14T12:35:59;101785.28;;;29.73;57.08
68544;BME280;55534;52.222;5.156;2023-06-14T12:38:25;101759.47;;;29.55;58.27
68544;BME280;55534;52.222;5.156;2023-06-14T12:40:50;101773.00;;;29.72;55.61
68544;BME280;55534;52.222;5.156;2023-06-14T12:43:16;101752.88;;;29.50;56.04
68544;BME280;55534;52.222;5.156;2023-06-14T12:45:41;101767.34;;;29.59;56.94
68544;BME280;55534;52.222;5.156;2023-06-14T12:48:07;101766.84;;;29.60;55.69
68544;BME280;55534;52.222;5.156;2023-06-14T12:50:34;101769.56;;;29.71;55.24
68544;BME280;55534;52.222;5.156;2023-06-14T12:52:59;101773.53;;;29.82;54.00
68544;BME280;55534;52.222;5.156;2023-06-14T12:55:25;101787.03;;;29.93;52.19